sensor_id;sensor_type;location;lat;lon;timestamp;P1;durP1;ratioP1;P2;durP2;ratioP2
75628;SDS011;64213;46.452;16.994;2023-06-01T00:00:41;14.13;;;7.37;;
75628;SDS011;64213;46.452;16.994;2023-06-01T00:03:46;12.85;;;7.60;;
75628;SDS011;64213;46.452;16.994;2023-06-01T00:06:48;16.60;;;7.90;;
75628;SDS011;64213;46.452;16.994;2023-06-01T00:09:50;14.70;;;7.78;;
75628;SDS011;64213;46.452;16.994;2023-06-01T00:12:52;14.27;;;7.82;;
75628;SDS011;64213;46.452;16.994;2023-06-01T00:15:54;13.97;;;8.17;;
75628;SDS011;64213;46.452;16.994;2023-06-01T00:18:56;14.48;;;8.02;;
75628;SDS011;64213;46.452;16.994;2023-06-01T00:22:02;14.15;;;7.60;;
75628;SDS011;64213;46.452;16.994;2023-06-01T00:25:05;15.07;;;7.87;;
75628;SDS011;64213;46.452;16.994;2023-06-01T00:28:10;15.05;;;7.95;;
75628;SDS011;64213;46.452;16.994;2023-06-01T00:31:12;14.57;;;8.40;;
75628;SDS011;64213;46.452;16.994;2023-06-01T00:34:14;15.73;;;7.87;;
75628;SDS011;64213;46.452;16.994;2023-06-01T00:37:16;16.62;;;8.10;;
75628;SDS011;64213;46.452;16.994;2023-06-01T00:40:18;15.32;;;8.07;;
75628;SDS011;64213;46.452;16.994;2023-06-01T00:43:20;14.87;;;8.40;;
75628;SDS011;64213;46.452;16.994;2023-06-01T00:46:22;14.43;;;7.90;;
75628;SDS011;64213;46.452;16.994;2023-06-01T00:49:24;16.40;;;8.25;;
75628;SDS011;64213;46.452;16.994;2023-06-01T00:52:27;14.00;;;8.18;;
75628;SDS011;64213;46.452;16.994;2023-06-01T00:55:29;17.50;;;8.55;;
75628;SDS011;64213;46.452;16.994;2023-06-01T00:58:31;17.50;;;9.70;;
75628;SDS011;64213;46.452;16.994;2023-06-01T01:01:33;15.90;;;8.50;;
75628;SDS011;64213;46.452;16.994;2023-06-01T01:04:35;18.27;;;9.50;;
75628;SDS011;64213;46.452;16.994;2023-06-01T01:14:34;17.27;;;9.60;;
75628;SDS011;64213;46.452;16.994;2023-06-01T01:17:42;17.50;;;9.20;;
75628;SDS011;64213;46.452;16.994;2023-06-01T01:20:55;17.48;;;8.85;;
75628;SDS011;64213;46.452;16.994;2023-06-01T01:30:56;20.05;;;10.55;;
75628;SDS011;64213;46.452;16.994;2023-06-01T01:34:01;16.03;;;10.10;;
75628;SDS011;64213;46.452;16.994;2023-06-01T01:37:05;16.50;;;9.63;;
75628;SDS011;64213;46.452;16.994;2023-06-01T01:40:07;15.90;;;9.60;;
75628;SDS011;64213;46.452;16.994;2023-06-01T01:43:20;17.87;;;10.55;;
75628;SDS011;64213;46.452;16.994;2023-06-01T01:46:27;17.17;;;10.38;;
75628;SDS011;64213;46.452;16.994;2023-06-01T01:49:34;19.57;;;10.67;;
75628;SDS011;64213;46.452;16.994;2023-06-01T01:52:42;20.65;;;10.20;;
75628;SDS011;64213;46.452;16.994;2023-06-01T01:55:46;18.35;;;11.35;;
75628;SDS011;64213;46.452;16.994;2023-06-01T01:58:51;17.50;;;10.85;;
75628;SDS011;64213;46.452;16.994;2023-06-01T02:01:54;20.65;;;12.13;;
75628;SDS011;64213;46.452;16.994;2023-06-01T02:04:57;20.17;;;11.23;;
75628;SDS011;64213;46.452;16.994;2023-06-01T02:07:59;18.40;;;12.20;;
75628;SDS011;64213;46.452;16.994;2023-06-01T02:11:01;18.92;;;11.40;;
75628;SDS011;64213;46.452;16.994;2023-06-01T02:14:04;17.02;;;10.32;;
75628;SDS011;64213;46.452;16.994;2023-06-01T02:17:06;19.55;;;11.07;;
75628;SDS011;64213;46.452;16.994;2023-06-01T02:20:09;21.83;;;11.10;;
75628;SDS011;64213;46.452;16.994;2023-06-01T02:23:12;17.70;;;10.27;;
75628;SDS011;64213;46.452;16.994;2023-06-01T02:26:14;18.62;;;10.10;;
75628;SDS011;64213;46.452;16.994;2023-06-01T02:29:16;19.67;;;10.80;;
75628;SDS011;64213;46.452;16.994;2023-06-01T02:32:21;20.35;;;10.63;;
75628;SDS011;64213;46.452;16.994;2023-06-01T02:35:23;16.13;;;10.07;;
75628;SDS011;64213;46.452;16.994;2023-06-01T02:38:25;17.92;;;10.60;;
75628;SDS011;64213;46.452;16.994;2023-06-01T02:41:28;19.60;;;10.68;;
75628;SDS011;64213;46.452;16.994;2023-06-01T02:44:30;20.55;;;11.43;;
75628;SDS011;64213;46.452;16.994;2023-06-01T02:47:32;17.50;;;10.63;;
75628;SDS011;64213;46.452;16.994;2023-06-01T02:50:34;22.37;;;10.20;;
75628;SDS011;64213;46.452;16.994;2023-06-01T02:53:38;20.00;;;10.68;;
75628;SDS011;64213;46.452;16.994;2023-06-01T02:56:44;18.05;;;10.50;;
75628;SDS011;64213;46.452;16.994;2023-06-01T02:59:46;19.92;;;10.90;;
75628;SDS011;64213;46.452;16.994;2023-06-01T03:02:48;19.08;;;9.63;;
75628;SDS011;64213;46.452;16.994;2023-06-01T03:05:51;18.80;;;10.53;;
75628;SDS011;64213;46.452;16.994;2023-06-01T03:08:53;18.83;;;10.43;;
75628;SDS011;64213;46.452;16.994;2023-06-01T03:11:55;19.15;;;10.82;;
75628;SDS011;64213;46.452;16.994;2023-06-01T03:14:57;23.27;;;10.95;;
75628;SDS011;64213;46.452;16.994;2023-06-01T03:17:59;24.60;;;10.90;;
75628;SDS011;64213;46.452;16.994;2023-06-01T03:21:03;19.70;;;11.40;;
75628;SDS011;64213;46.452;16.994;2023-06-01T03:24:05;20.37;;;12.00;;
75628;SDS011;64213;46.452;16.994;2023-06-01T03:27:08;22.62;;;12.40;;
75628;SDS011;64213;46.452;16.994;2023-06-01T03:30:10;22.02;;;12.48;;
75628;SDS011;64213;46.452;16.994;2023-06-01T03:33:13;25.50;;;12.60;;
75628;SDS011;64213;46.452;16.994;2023-06-01T03:36:15;18.93;;;12.07;;
75628;SDS011;64213;46.452;16.994;2023-06-01T03:39:17;20.98;;;11.75;;
75628;SDS011;64213;46.452;16.994;2023-06-01T03:42:19;20.92;;;11.27;;
75628;SDS011;64213;46.452;16.994;2023-06-01T03:45:21;19.37;;;10.20;;
75628;SDS011;64213;46.452;16.994;2023-06-01T03:48:23;19.00;;;9.82;;
75628;SDS011;64213;46.452;16.994;2023-06-01T03:51:25;15.30;;;8.77;;
75628;SDS011;64213;46.452;16.994;2023-06-01T03:54:27;16.00;;;8.55;;
75628;SDS011;64213;46.452;16.994;2023-06-01T03:57:29;19.85;;;9.25;;
75628;SDS011;64213;46.452;16.994;2023-06-01T04:00:31;18.15;;;9.52;;
75628;SDS011;64213;46.452;16.994;2023-06-01T04:03:33;15.02;;;8.82;;
75628;SDS011;64213;46.452;16.994;2023-06-01T04:06:35;15.57;;;8.37;;
75628;SDS011;64213;46.452;16.994;2023-06-01T04:09:38;18.00;;;8.85;;
75628;SDS011;64213;46.452;16.994;2023-06-01T04:12:41;15.70;;;6.97;;
75628;SDS011;64213;46.452;16.994;2023-06-01T04:15:44;18.67;;;7.60;;
75628;SDS011;64213;46.452;16.994;2023-06-01T04:18:47;14.20;;;7.35;;
75628;SDS011;64213;46.452;16.994;2023-06-01T04:21:49;16.63;;;7.30;;
75628;SDS011;64213;46.452;16.994;2023-06-01T04:24:51;13.68;;;6.95;;
75628;SDS011;64213;46.452;16.994;2023-06-01T04:31:51;15.73;;;6.93;;
75628;SDS011;64213;46.452;16.994;2023-06-01T04:34:56;14.63;;;7.03;;
75628;SDS011;64213;46.452;16.994;2023-06-01T04:38:01;14.47;;;6.70;;
75628;SDS011;64213;46.452;16.994;2023-06-01T04:41:03;13.88;;;6.95;;
75628;SDS011;64213;46.452;16.994;2023-06-01T04:44:06;15.30;;;6.35;;
75628;SDS011;64213;46.452;16.994;2023-06-01T04:47:08;14.35;;;7.25;;
75628;SDS011;64213;46.452;16.994;2023-06-01T04:50:11;14.25;;;6.90;;
75628;SDS011;64213;46.452;16.994;2023-06-01T04:53:14;17.30;;;6.70;;
75628;SDS011;64213;46.452;16.994;2023-06-01T04:56:17;15.27;;;7.00;;
75628;SDS011;64213;46.452;16.994;2023-06-01T04:59:31;14.38;;;6.22;;
75628;SDS011;64213;46.452;16.994;2023-06-01T05:02:33;12.18;;;6.18;;
75628;SDS011;64213;46.452;16.994;2023-06-01T05:05:35;12.07;;;6.28;;
75628;SDS011;64213;46.452;16.994;2023-06-01T05:08:41;11.73;;;5.83;;
75628;SDS011;64213;46.452;16.994;2023-06-01T05:11:43;12.63;;;5.95;;
75628;SDS011;64213;46.452;16.994;2023-06-01T05:21:50;13.70;;;5.68;;
75628;SDS011;64213;46.452;16.994;2023-06-01T05:24:53;12.17;;;6.17;;
75628;SDS011;64213;46.452;16.994;2023-06-01T05:27:55;14.35;;;5.70;;
75628;SDS011;64213;46.452;16.994;2023-06-01T05:30:57;15.68;;;5.90;;
75628;SDS011;64213;46.452;16.994;2023-06-01T05:34:00;17.17;;;7.62;;
75628;SDS011;64213;46.452;16.994;2023-06-01T05:37:02;11.45;;;5.68;;
75628;SDS011;64213;46.452;16.994;2023-06-01T05:40:05;13.10;;;5.47;;
75628;SDS011;64213;46.452;16.994;2023-06-01T05:43:10;14.27;;;6.00;;
75628;SDS011;64213;46.452;16.994;2023-06-01T05:46:12;15.95;;;5.55;;
75628;SDS011;64213;46.452;16.994;2023-06-01T05:49:14;15.02;;;5.45;;
75628;SDS011;64213;46.452;16.994;2023-06-01T05:52:17;13.77;;;6.97;;
75628;SDS011;64213;46.452;16.994;2023-06-01T05:55:19;14.20;;;5.70;;
75628;SDS011;64213;46.452;16.994;2023-06-01T05:58:21;14.15;;;6.10;;
75628;SDS011;64213;46.452;16.994;2023-06-01T06:01:24;12.02;;;5.82;;
75628;SDS011;64213;46.452;16.994;2023-06-01T06:04:26;12.48;;;5.72;;
75628;SDS011;64213;46.452;16.994;2023-06-01T06:07:28;11.43;;;5.37;;
75628;SDS011;64213;46.452;16.994;2023-06-01T06:10:31;13.47;;;5.43;;
75628;SDS011;64213;46.452;16.994;2023-06-01T06:13:33;13.20;;;5.20;;
75628;SDS011;64213;46.452;16.994;2023-06-01T06:16:35;17.60;;;5.70;;
75628;SDS011;64213;46.452;16.994;2023-06-01T06:19:37;13.43;;;5.55;;
75628;SDS011;64213;46.452;16.994;2023-06-01T06:30:46;12.75;;;4.95;;
75628;SDS011;64213;46.452;16.994;2023-06-01T06:33:48;12.82;;;5.43;;
75628;SDS011;64213;46.452;16.994;2023-06-01T06:36:51;10.82;;;5.80;;
75628;SDS011;64213;46.452;16.994;2023-06-01T06:39:54;13.82;;;5.07;;
75628;SDS011;64213;46.452;16.994;2023-06-01T06:42:56;13.30;;;5.87;;
75628;SDS011;64213;46.452;16.994;2023-06-01T06:45:58;11.43;;;5.40;;
75628;SDS011;64213;46.452;16.994;2023-06-01T06:49:00;11.38;;;5.43;;
75628;SDS011;64213;46.452;16.994;2023-06-01T06:52:02;10.52;;;5.05;;
75628;SDS011;64213;46.452;16.994;2023-06-01T06:55:04;10.98;;;5.40;;
75628;SDS011;64213;46.452;16.994;2023-06-01T06:58:08;10.90;;;5.60;;
75628;SDS011;64213;46.452;16.994;2023-06-01T07:01:12;11.20;;;5.75;;
75628;SDS011;64213;46.452;16.994;2023-06-01T07:04:14;11.73;;;5.80;;
75628;SDS011;64213;46.452;16.994;2023-06-01T07:07:16;13.07;;;5.28;;
75628;SDS011;64213;46.452;16.994;2023-06-01T07:10:18;10.52;;;6.03;;
75628;SDS011;64213;46.452;16.994;2023-06-01T07:13:21;11.10;;;5.27;;
75628;SDS011;64213;46.452;16.994;2023-06-01T07:16:24;11.05;;;5.10;;
75628;SDS011;64213;46.452;16.994;2023-06-01T07:19:30;11.60;;;5.32;;
75628;SDS011;64213;46.452;16.994;2023-06-01T07:22:35;10.93;;;4.82;;
75628;SDS011;64213;46.452;16.994;2023-06-01T07:25:37;11.07;;;5.65;;
75628;SDS011;64213;46.452;16.994;2023-06-01T07:28:38;10.13;;;5.00;;
75628;SDS011;64213;46.452;16.994;2023-06-01T07:31:44;11.68;;;4.95;;
75628;SDS011;64213;46.452;16.994;2023-06-01T07:34:46;14.15;;;5.68;;
75628;SDS011;64213;46.452;16.994;2023-06-01T07:37:48;10.27;;;5.07;;
75628;SDS011;64213;46.452;16.994;2023-06-01T07:40:50;10.27;;;5.60;;
75628;SDS011;64213;46.452;16.994;2023-06-01T07:43:53;11.53;;;5.10;;
75628;SDS011;64213;46.452;16.994;2023-06-01T07:46:55;11.00;;;5.18;;
75628;SDS011;64213;46.452;16.994;2023-06-01T07:49:57;12.32;;;5.40;;
75628;SDS011;64213;46.452;16.994;2023-06-01T07:52:59;11.70;;;5.35;;
75628;SDS011;64213;46.452;16.994;2023-06-01T07:56:01;11.43;;;5.10;;
75628;SDS011;64213;46.452;16.994;2023-06-01T07:59:04;10.83;;;5.17;;
75628;SDS011;64213;46.452;16.994;2023-06-01T08:02:07;10.35;;;5.30;;
75628;SDS011;64213;46.452;16.994;2023-06-01T08:05:09;12.48;;;5.20;;
75628;SDS011;64213;46.452;16.994;2023-06-01T08:08:13;12.10;;;5.03;;
75628;SDS011;64213;46.452;16.994;2023-06-01T08:11:16;11.30;;;5.10;;
75628;SDS011;64213;46.452;16.994;2023-06-01T08:14:18;11.30;;;4.73;;
75628;SDS011;64213;46.452;16.994;2023-06-01T08:17:20;11.18;;;5.10;;
75628;SDS011;64213;46.452;16.994;2023-06-01T08:20:23;11.88;;;4.70;;
75628;SDS011;64213;46.452;16.994;2023-06-01T08:23:25;11.10;;;5.18;;
75628;SDS011;64213;46.452;16.994;2023-06-01T08:26:28;11.38;;;5.00;;
75628;SDS011;64213;46.452;16.994;2023-06-01T08:29:30;10.33;;;5.20;;
75628;SDS011;64213;46.452;16.994;2023-06-01T08:32:43;11.77;;;5.32;;
75628;SDS011;64213;46.452;16.994;2023-06-01T08:35:45;12.45;;;5.22;;
75628;SDS011;64213;46.452;16.994;2023-06-01T08:38:48;10.55;;;5.15;;
75628;SDS011;64213;46.452;16.994;2023-06-01T08:45:12;12.37;;;4.83;;
75628;SDS011;64213;46.452;16.994;2023-06-01T08:48:16;11.25;;;4.72;;
75628;SDS011;64213;46.452;16.994;2023-06-01T08:51:22;10.85;;;5.03;;
75628;SDS011;64213;46.452;16.994;2023-06-01T08:54:25;10.90;;;4.90;;
75628;SDS011;64213;46.452;16.994;2023-06-01T08:57:28;9.35;;;4.93;;
75628;SDS011;64213;46.452;16.994;2023-06-01T09:00:33;12.90;;;5.63;;
75628;SDS011;64213;46.452;16.994;2023-06-01T09:03:37;10.63;;;5.47;;
75628;SDS011;64213;46.452;16.994;2023-06-01T09:06:41;9.50;;;4.75;;
75628;SDS011;64213;46.452;16.994;2023-06-01T09:09:44;9.20;;;4.78;;
75628;SDS011;64213;46.452;16.994;2023-06-01T09:12:53;10.80;;;5.78;;
75628;SDS011;64213;46.452;16.994;2023-06-01T09:15:56;9.20;;;4.93;;
75628;SDS011;64213;46.452;16.994;2023-06-01T09:18:58;9.25;;;5.30;;
75628;SDS011;64213;46.452;16.994;2023-06-01T09:22:01;11.02;;;5.37;;
75628;SDS011;64213;46.452;16.994;2023-06-01T09:25:03;10.52;;;5.30;;
75628;SDS011;64213;46.452;16.994;2023-06-01T09:28:05;11.77;;;5.10;;
75628;SDS011;64213;46.452;16.994;2023-06-01T09:31:10;10.50;;;4.47;;
75628;SDS011;64213;46.452;16.994;2023-06-01T09:34:14;13.60;;;5.68;;
75628;SDS011;64213;46.452;16.994;2023-06-01T09:37:20;12.73;;;6.25;;
75628;SDS011;64213;46.452;16.994;2023-06-01T09:40:22;9.88;;;5.62;;
75628;SDS011;64213;46.452;16.994;2023-06-01T09:43:24;13.20;;;6.30;;
75628;SDS011;64213;46.452;16.994;2023-06-01T09:46:26;9.37;;;5.20;;
75628;SDS011;64213;46.452;16.994;2023-06-01T09:49:31;10.82;;;5.10;;
75628;SDS011;64213;46.452;16.994;2023-06-01T09:52:34;10.70;;;4.82;;
75628;SDS011;64213;46.452;16.994;2023-06-01T09:55:36;10.05;;;4.95;;
75628;SDS011;64213;46.452;16.994;2023-06-01T09:58:58;9.30;;;5.10;;
75628;SDS011;64213;46.452;16.994;2023-06-01T10:02:01;10.37;;;5.70;;
75628;SDS011;64213;46.452;16.994;2023-06-01T10:05:05;10.73;;;5.05;;
75628;SDS011;64213;46.452;16.994;2023-06-01T10:08:10;8.80;;;4.75;;
75628;SDS011;64213;46.452;16.994;2023-06-01T10:11:14;10.00;;;5.72;;
75628;SDS011;64213;46.452;16.994;2023-06-01T10:14:16;9.77;;;5.57;;
75628;SDS011;64213;46.452;16.994;2023-06-01T10:17:19;9.40;;;5.03;;
75628;SDS011;64213;46.452;16.994;2023-06-01T10:20:21;10.43;;;5.10;;
75628;SDS011;64213;46.452;16.994;2023-06-01T10:23:25;9.23;;;5.18;;
75628;SDS011;64213;46.452;16.994;2023-06-01T10:26:43;10.35;;;5.10;;
75628;SDS011;64213;46.452;16.994;2023-06-01T10:29:49;10.82;;;4.70;;
75628;SDS011;64213;46.452;16.994;2023-06-01T10:32:53;10.90;;;4.90;;
75628;SDS011;64213;46.452;16.994;2023-06-01T10:35:56;10.57;;;4.62;;
75628;SDS011;64213;46.452;16.994;2023-06-01T10:42:35;10.75;;;4.43;;
75628;SDS011;64213;46.452;16.994;2023-06-01T10:45:39;12.52;;;5.12;;
75628;SDS011;64213;46.452;16.994;2023-06-01T10:48:53;8.77;;;4.60;;
75628;SDS011;64213;46.452;16.994;2023-06-01T10:52:23;10.07;;;4.78;;
75628;SDS011;64213;46.452;16.994;2023-06-01T10:55:31;9.45;;;5.03;;
75628;SDS011;64213;46.452;16.994;2023-06-01T10:58:33;8.88;;;4.75;;
75628;SDS011;64213;46.452;16.994;2023-06-01T11:01:36;9.25;;;4.55;;
75628;SDS011;64213;46.452;16.994;2023-06-01T11:04:42;12.17;;;4.90;;
75628;SDS011;64213;46.452;16.994;2023-06-01T11:07:44;9.20;;;4.70;;
75628;SDS011;64213;46.452;16.994;2023-06-01T11:14:05;14.20;;;5.20;;
75628;SDS011;64213;46.452;16.994;2023-06-01T11:17:25;10.25;;;4.80;;
75628;SDS011;64213;46.452;16.994;2023-06-01T11:20:36;10.77;;;5.13;;
75628;SDS011;64213;46.452;16.994;2023-06-01T11:23:44;11.68;;;4.90;;
75628;SDS011;64213;46.452;16.994;2023-06-01T11:26:48;9.02;;;4.78;;
75628;SDS011;64213;46.452;16.994;2023-06-01T11:29:51;9.15;;;5.03;;
75628;SDS011;64213;46.452;16.994;2023-06-01T11:32:54;9.43;;;5.15;;
75628;SDS011;64213;46.452;16.994;2023-06-01T11:35:59;8.67;;;4.67;;
75628;SDS011;64213;46.452;16.994;2023-06-01T11:39:03;9.75;;;4.95;;
75628;SDS011;64213;46.452;16.994;2023-06-01T11:42:21;10.30;;;5.15;;
75628;SDS011;64213;46.452;16.994;2023-06-01T11:45:24;8.55;;;4.80;;
75628;SDS011;64213;46.452;16.994;2023-06-01T11:48:28;8.73;;;4.80;;
75628;SDS011;64213;46.452;16.994;2023-06-01T11:51:39;8.90;;;4.85;;
75628;SDS011;64213;46.452;16.994;2023-06-01T11:54:44;10.35;;;5.07;;
75628;SDS011;64213;46.452;16.994;2023-06-01T11:57:47;9.80;;;4.97;;
75628;SDS011;64213;46.452;16.994;2023-06-01T12:00:49;11.80;;;4.90;;
75628;SDS011;64213;46.452;16.994;2023-06-01T12:03:55;10.33;;;4.80;;
75628;SDS011;64213;46.452;16.994;2023-06-01T12:07:04;12.45;;;5.28;;
75628;SDS011;64213;46.452;16.994;2023-06-01T12:10:07;9.57;;;5.43;;
75628;SDS011;64213;46.452;16.994;2023-06-01T12:13:11;9.95;;;4.90;;
75628;SDS011;64213;46.452;16.994;2023-06-01T12:16:13;9.05;;;5.30;;
75628;SDS011;64213;46.452;16.994;2023-06-01T12:19:23;9.20;;;5.33;;
75628;SDS011;64213;46.452;16.994;2023-06-01T12:22:29;11.88;;;5.07;;
75628;SDS011;64213;46.452;16.994;2023-06-01T12:25:34;8.32;;;5.05;;
75628;SDS011;64213;46.452;16.994;2023-06-01T12:28:49;10.98;;;6.00;;
75628;SDS011;64213;46.452;16.994;2023-06-01T12:32:01;10.73;;;5.20;;
75628;SDS011;64213;46.452;16.994;2023-06-01T12:35:04;10.83;;;5.40;;
75628;SDS011;64213;46.452;16.994;2023-06-01T12:38:12;9.55;;;4.37;;
75628;SDS011;64213;46.452;16.994;2023-06-01T12:41:14;8.80;;;4.35;;
75628;SDS011;64213;46.452;16.994;2023-06-01T12:44:19;10.00;;;4.37;;
75628;SDS011;64213;46.452;16.994;2023-06-01T12:47:22;9.85;;;4.35;;
75628;SDS011;64213;46.452;16.994;2023-06-01T12:50:24;11.70;;;4.43;;
75628;SDS011;64213;46.452;16.994;2023-06-01T12:53:27;10.52;;;4.35;;
75628;SDS011;64213;46.452;16.994;2023-06-01T12:56:29;10.25;;;4.82;;
75628;SDS011;64213;46.452;16.994;2023-06-01T12:59:32;9.80;;;5.10;;
75628;SDS011;64213;46.452;16.994;2023-06-01T13:02:34;11.95;;;4.70;;
75628;SDS011;64213;46.452;16.994;2023-06-01T13:05:40;9.47;;;4.83;;
75628;SDS011;64213;46.452;16.994;2023-06-01T13:08:44;9.30;;;4.72;;
75628;SDS011;64213;46.452;16.994;2023-06-01T13:11:46;11.10;;;4.97;;
75628;SDS011;64213;46.452;16.994;2023-06-01T13:14:48;10.43;;;4.53;;
75628;SDS011;64213;46.452;16.994;2023-06-01T13:17:51;9.65;;;4.75;;
75628;SDS011;64213;46.452;16.994;2023-06-01T13:20:56;9.33;;;4.63;;
75628;SDS011;64213;46.452;16.994;2023-06-01T13:23:58;9.50;;;4.75;;
75628;SDS011;64213;46.452;16.994;2023-06-01T13:27:01;9.55;;;4.72;;
75628;SDS011;64213;46.452;16.994;2023-06-01T13:30:06;11.07;;;4.70;;
75628;SDS011;64213;46.452;16.994;2023-06-01T13:33:09;9.45;;;4.80;;
75628;SDS011;64213;46.452;16.994;2023-06-01T13:36:11;10.27;;;5.27;;
75628;SDS011;64213;46.452;16.994;2023-06-01T13:39:13;12.13;;;5.10;;
75628;SDS011;64213;46.452;16.994;2023-06-01T13:42:16;9.85;;;5.05;;
75628;SDS011;64213;46.452;16.994;2023-06-01T13:45:18;9.75;;;5.37;;
75628;SDS011;64213;46.452;16.994;2023-06-01T13:48:21;9.25;;;5.37;;
75628;SDS011;64213;46.452;16.994;2023-06-01T13:51:24;13.67;;;5.70;;
75628;SDS011;64213;46.452;16.994;2023-06-01T13:54:26;10.75;;;5.20;;
75628;SDS011;64213;46.452;16.994;2023-06-01T13:57:28;9.82;;;5.47;;
75628;SDS011;64213;46.452;16.994;2023-06-01T14:00:30;9.57;;;4.90;;
75628;SDS011;64213;46.452;16.994;2023-06-01T14:03:31;9.52;;;4.80;;
75628;SDS011;64213;46.452;16.994;2023-06-01T14:06:34;9.73;;;5.20;;
75628;SDS011;64213;46.452;16.994;2023-06-01T14:09:36;10.13;;;5.10;;
75628;SDS011;64213;46.452;16.994;2023-06-01T14:16:58;9.13;;;4.82;;
75628;SDS011;64213;46.452;16.994;2023-06-01T14:20:00;10.60;;;4.97;;
75628;SDS011;64213;46.452;16.994;2023-06-01T14:23:02;9.47;;;4.80;;
75628;SDS011;64213;46.452;16.994;2023-06-01T14:26:05;9.95;;;4.68;;
75628;SDS011;64213;46.452;16.994;2023-06-01T14:29:07;10.57;;;5.10;;
75628;SDS011;64213;46.452;16.994;2023-06-01T14:32:10;11.10;;;5.12;;
75628;SDS011;64213;46.452;16.994;2023-06-01T14:35:12;11.30;;;5.03;;
75628;SDS011;64213;46.452;16.994;2023-06-01T14:38:17;10.00;;;5.33;;
75628;SDS011;64213;46.452;16.994;2023-06-01T14:41:20;9.13;;;4.87;;
75628;SDS011;64213;46.452;16.994;2023-06-01T14:44:22;10.18;;;5.22;;
75628;SDS011;64213;46.452;16.994;2023-06-01T14:47:24;10.25;;;5.32;;
75628;SDS011;64213;46.452;16.994;2023-06-01T14:50:26;9.90;;;5.20;;
75628;SDS011;64213;46.452;16.994;2023-06-01T14:53:29;10.23;;;5.10;;
75628;SDS011;64213;46.452;16.994;2023-06-01T14:56:31;10.35;;;5.40;;
75628;SDS011;64213;46.452;16.994;2023-06-01T14:59:33;10.30;;;5.50;;
75628;SDS011;64213;46.452;16.994;2023-06-01T15:02:42;12.30;;;5.30;;
75628;SDS011;64213;46.452;16.994;2023-06-01T15:05:44;12.98;;;6.03;;
75628;SDS011;64213;46.452;16.994;2023-06-01T15:08:46;10.57;;;5.20;;
75628;SDS011;64213;46.452;16.994;2023-06-01T15:11:48;11.55;;;5.12;;
75628;SDS011;64213;46.452;16.994;2023-06-01T15:14:50;11.95;;;5.62;;
75628;SDS011;64213;46.452;16.994;2023-06-01T15:17:53;12.35;;;4.97;;
75628;SDS011;64213;46.452;16.994;2023-06-01T15:20:56;10.82;;;5.50;;
75628;SDS011;64213;46.452;16.994;2023-06-01T15:23:59;11.00;;;4.80;;
75628;SDS011;64213;46.452;16.994;2023-06-01T15:27:01;10.23;;;4.60;;
75628;SDS011;64213;46.452;16.994;2023-06-01T15:30:04;11.70;;;5.25;;
75628;SDS011;64213;46.452;16.994;2023-06-01T15:33:07;11.48;;;4.97;;
75628;SDS011;64213;46.452;16.994;2023-06-01T15:36:10;10.25;;;4.93;;
75628;SDS011;64213;46.452;16.994;2023-06-01T15:39:12;10.13;;;4.87;;
75628;SDS011;64213;46.452;16.994;2023-06-01T15:42:14;9.68;;;4.47;;
75628;SDS011;64213;46.452;16.994;2023-06-01T15:45:17;9.18;;;4.50;;
75628;SDS011;64213;46.452;16.994;2023-06-01T15:48:19;9.80;;;4.87;;
75628;SDS011;64213;46.452;16.994;2023-06-01T15:51:21;9.63;;;4.40;;
75628;SDS011;64213;46.452;16.994;2023-06-01T15:54:23;10.17;;;5.00;;
75628;SDS011;64213;46.452;16.994;2023-06-01T15:57:25;10.07;;;4.37;;
75628;SDS011;64213;46.452;16.994;2023-06-01T16:00:32;9.70;;;4.70;;
75628;SDS011;64213;46.452;16.994;2023-06-01T16:03:34;9.10;;;4.20;;
75628;SDS011;64213;46.452;16.994;2023-06-01T16:06:36;12.27;;;4.40;;
75628;SDS011;64213;46.452;16.994;2023-06-01T16:09:38;10.07;;;4.00;;
75628;SDS011;64213;46.452;16.994;2023-06-01T16:12:41;12.45;;;3.95;;
75628;SDS011;64213;46.452;16.994;2023-06-01T16:15:42;9.77;;;4.30;;
75628;SDS011;64213;46.452;16.994;2023-06-01T16:18:45;12.23;;;3.90;;
75628;SDS011;64213;46.452;16.994;2023-06-01T16:21:47;9.50;;;4.37;;
75628;SDS011;64213;46.452;16.994;2023-06-01T16:24:49;11.00;;;4.00;;
75628;SDS011;64213;46.452;16.994;2023-06-01T16:27:52;10.68;;;4.70;;
75628;SDS011;64213;46.452;16.994;2023-06-01T16:30:57;9.80;;;3.70;;
75628;SDS011;64213;46.452;16.994;2023-06-01T16:34:00;11.73;;;4.93;;
75628;SDS011;64213;46.452;16.994;2023-06-01T16:37:03;9.23;;;4.47;;
75628;SDS011;64213;46.452;16.994;2023-06-01T16:40:05;9.33;;;4.00;;
75628;SDS011;64213;46.452;16.994;2023-06-01T16:43:08;11.15;;;4.45;;
75628;SDS011;64213;46.452;16.994;2023-06-01T16:46:10;10.65;;;4.18;;
75628;SDS011;64213;46.452;16.994;2023-06-01T16:49:12;9.88;;;3.90;;
75628;SDS011;64213;46.452;16.994;2023-06-01T16:52:14;9.40;;;4.30;;
75628;SDS011;64213;46.452;16.994;2023-06-01T16:55:16;12.97;;;4.20;;
75628;SDS011;64213;46.452;16.994;2023-06-01T16:58:18;9.52;;;4.25;;
75628;SDS011;64213;46.452;16.994;2023-06-01T17:01:20;10.68;;;4.47;;
75628;SDS011;64213;46.452;16.994;2023-06-01T17:04:22;9.38;;;4.12;;
75628;SDS011;64213;46.452;16.994;2023-06-01T17:11:23;8.10;;;3.77;;
75628;SDS011;64213;46.452;16.994;2023-06-01T17:14:27;9.07;;;3.95;;
75628;SDS011;64213;46.452;16.994;2023-06-01T17:17:30;8.27;;;3.60;;
75628;SDS011;64213;46.452;16.994;2023-06-01T17:20:34;8.98;;;3.80;;
75628;SDS011;64213;46.452;16.994;2023-06-01T17:23:36;9.05;;;4.18;;
75628;SDS011;64213;46.452;16.994;2023-06-01T17:26:39;8.77;;;4.00;;
75628;SDS011;64213;46.452;16.994;2023-06-01T17:29:41;8.10;;;3.42;;
75628;SDS011;64213;46.452;16.994;2023-06-01T17:40:00;8.45;;;3.60;;
75628;SDS011;64213;46.452;16.994;2023-06-01T17:43:02;9.80;;;4.30;;
75628;SDS011;64213;46.452;16.994;2023-06-01T17:46:04;10.82;;;4.12;;
75628;SDS011;64213;46.452;16.994;2023-06-01T17:49:07;8.82;;;3.70;;
75628;SDS011;64213;46.452;16.994;2023-06-01T17:52:09;9.95;;;4.18;;
75628;SDS011;64213;46.452;16.994;2023-06-01T17:55:11;10.48;;;4.43;;
75628;SDS011;64213;46.452;16.994;2023-06-01T17:58:14;9.40;;;3.90;;
75628;SDS011;64213;46.452;16.994;2023-06-01T18:01:16;10.90;;;4.00;;
75628;SDS011;64213;46.452;16.994;2023-06-01T18:04:18;10.68;;;4.43;;
75628;SDS011;64213;46.452;16.994;2023-06-01T18:07:21;9.38;;;3.97;;
75628;SDS011;64213;46.452;16.994;2023-06-01T18:10:25;9.43;;;4.32;;
75628;SDS011;64213;46.452;16.994;2023-06-01T18:13:27;13.40;;;4.00;;
75628;SDS011;64213;46.452;16.994;2023-06-01T18:16:29;10.32;;;4.30;;
75628;SDS011;64213;46.452;16.994;2023-06-01T18:19:31;9.55;;;4.32;;
75628;SDS011;64213;46.452;16.994;2023-06-01T18:22:33;9.77;;;4.28;;
75628;SDS011;64213;46.452;16.994;2023-06-01T18:25:36;11.25;;;4.03;;
75628;SDS011;64213;46.452;16.994;2023-06-01T18:28:38;11.43;;;4.13;;
75628;SDS011;64213;46.452;16.994;2023-06-01T18:31:40;13.55;;;4.40;;
75628;SDS011;64213;46.452;16.994;2023-06-01T18:34:46;9.15;;;4.20;;
75628;SDS011;64213;46.452;16.994;2023-06-01T18:37:48;10.82;;;4.50;;
75628;SDS011;64213;46.452;16.994;2023-06-01T18:40:50;12.23;;;4.35;;
75628;SDS011;64213;46.452;16.994;2023-06-01T18:43:52;10.23;;;4.30;;
75628;SDS011;64213;46.452;16.994;2023-06-01T18:46:54;10.77;;;4.37;;
75628;SDS011;64213;46.452;16.994;2023-06-01T18:49:56;13.55;;;4.68;;
75628;SDS011;64213;46.452;16.994;2023-06-01T18:52:58;11.07;;;4.30;;